sensor_id;sensor_type;location;lat;lon;timestamp;P1;durP1;ratioP1;P2;durP2;ratioP2
10442;SDS011;5269;51.146;16.986;2023-02-08T00:00:51;11.87;;;7.80;;
10442;SDS011;5269;51.146;16.986;2023-02-08T00:03:18;12.03;;;8.67;;
10442;SDS011;5269;51.146;16.986;2023-02-08T00:05:47;13.97;;;8.87;;
10442;SDS011;5269;51.146;16.986;2023-02-08T00:08:14;10.07;;;8.13;;
10442;SDS011;5269;51.146;16.986;2023-02-08T00:10:41;10.43;;;8.00;;
10442;SDS011;5269;51.146;16.986;2023-02-08T00:13:08;11.67;;;7.90;;
10442;SDS011;5269;51.146;16.986;2023-02-08T00:15:39;10.90;;;8.20;;
10442;SDS011;5269;51.146;16.986;2023-02-08T00:18:06;12.47;;;8.07;;
10442;SDS011;5269;51.146;16.986;2023-02-08T00:20:33;10.80;;;8.10;;
10442;SDS011;5269;51.146;16.986;2023-02-08T00:23:01;12.00;;;8.27;;
10442;SDS011;5269;51.146;16.986;2023-02-08T00:25:28;13.00;;;8.93;;
10442;SDS011;5269;51.146;16.986;2023-02-08T00:27:55;13.20;;;8.63;;
10442;SDS011;5269;51.146;16.986;2023-02-08T00:30:22;13.17;;;8.97;;
10442;SDS011;5269;51.146;16.986;2023-02-08T00:32:49;14.13;;;9.20;;
10442;SDS011;5269;51.146;16.986;2023-02-08T00:35:16;12.53;;;8.73;;
10442;SDS011;5269;51.146;16.986;2023-02-08T00:37:43;13.23;;;9.10;;
10442;SDS011;5269;51.146;16.986;2023-02-08T00:40:11;11.83;;;9.07;;
10442;SDS011;5269;51.146;16.986;2023-02-08T00:42:38;13.27;;;8.77;;
10442;SDS011;5269;51.146;16.986;2023-02-08T00:45:05;16.13;;;10.33;;
10442;SDS011;5269;51.146;16.986;2023-02-08T00:47:32;15.47;;;10.37;;
10442;SDS011;5269;51.146;16.986;2023-02-08T00:50:00;15.60;;;10.40;;
10442;SDS011;5269;51.146;16.986;2023-02-08T00:52:27;15.43;;;10.63;;
10442;SDS011;5269;51.146;16.986;2023-02-08T00:54:54;14.30;;;10.47;;
10442;SDS011;5269;51.146;16.986;2023-02-08T00:57:22;17.43;;;11.20;;
10442;SDS011;5269;51.146;16.986;2023-02-08T00:59:49;16.20;;;11.30;;
10442;SDS011;5269;51.146;16.986;2023-02-08T01:02:16;17.10;;;10.83;;
10442;SDS011;5269;51.146;16.986;2023-02-08T01:04:43;16.53;;;11.33;;
10442;SDS011;5269;51.146;16.986;2023-02-08T01:07:10;17.50;;;11.70;;
10442;SDS011;5269;51.146;16.986;2023-02-08T01:09:37;18.17;;;11.17;;
10442;SDS011;5269;51.146;16.986;2023-02-08T01:12:04;20.07;;;12.23;;
10442;SDS011;5269;51.146;16.986;2023-02-08T01:14:32;19.00;;;12.17;;
10442;SDS011;5269;51.146;16.986;2023-02-08T01:16:59;15.67;;;11.47;;
10442;SDS011;5269;51.146;16.986;2023-02-08T01:19:26;16.40;;;11.43;;
10442;SDS011;5269;51.146;16.986;2023-02-08T01:21:53;15.47;;;11.07;;
10442;SDS011;5269;51.146;16.986;2023-02-08T01:24:20;14.57;;;9.77;;
10442;SDS011;5269;51.146;16.986;2023-02-08T01:26:50;14.37;;;9.87;;
10442;SDS011;5269;51.146;16.986;2023-02-08T01:29:17;13.67;;;8.77;;
10442;SDS011;5269;51.146;16.986;2023-02-08T01:31:45;12.97;;;8.90;;
10442;SDS011;5269;51.146;16.986;2023-02-08T01:34:12;10.93;;;7.40;;
10442;SDS011;5269;51.146;16.986;2023-02-08T01:36:39;11.93;;;8.07;;
10442;SDS011;5269;51.146;16.986;2023-02-08T01:39:06;11.03;;;8.10;;
10442;SDS011;5269;51.146;16.986;2023-02-08T01:41:37;12.27;;;8.50;;
10442;SDS011;5269;51.146;16.986;2023-02-08T01:44:08;11.40;;;7.00;;
10442;SDS011;5269;51.146;16.986;2023-02-08T01:47:16;12.03;;;7.20;;
10442;SDS011;5269;51.146;16.986;2023-02-08T01:49:43;10.27;;;6.97;;
10442;SDS011;5269;51.146;16.986;2023-02-08T01:52:11;11.37;;;7.33;;
10442;SDS011;5269;51.146;16.986;2023-02-08T01:54:42;8.87;;;6.47;;
10442;SDS011;5269;51.146;16.986;2023-02-08T01:57:14;8.33;;;6.27;;
10442;SDS011;5269;51.146;16.986;2023-02-08T01:59:42;10.13;;;6.67;;
10442;SDS011;5269;51.146;16.986;2023-02-08T02:02:13;9.77;;;6.63;;
10442;SDS011;5269;51.146;16.986;2023-02-08T02:04:44;9.60;;;6.70;;
10442;SDS011;5269;51.146;16.986;2023-02-08T02:07:12;9.27;;;6.40;;
10442;SDS011;5269;51.146;16.986;2023-02-08T02:09:42;8.63;;;6.67;;
10442;SDS011;5269;51.146;16.986;2023-02-08T02:12:12;9.63;;;6.80;;
10442;SDS011;5269;51.146;16.986;2023-02-08T02:14:40;10.93;;;6.80;;
10442;SDS011;5269;51.146;16.986;2023-02-08T02:17:09;10.17;;;6.43;;
10442;SDS011;5269;51.146;16.986;2023-02-08T02:19:44;7.23;;;6.27;;
10442;SDS011;5269;51.146;16.986;2023-02-08T02:22:27;9.73;;;6.43;;
10442;SDS011;5269;51.146;16.986;2023-02-08T02:25:25;8.63;;;5.93;;
10442;SDS011;5269;51.146;16.986;2023-02-08T02:28:14;8.43;;;6.10;;
10442;SDS011;5269;51.146;16.986;2023-02-08T02:34:02;7.47;;;6.00;;
10442;SDS011;5269;51.146;16.986;2023-02-08T02:36:36;8.50;;;5.70;;
10442;SDS011;5269;51.146;16.986;2023-02-08T02:39:14;9.53;;;6.47;;
10442;SDS011;5269;51.146;16.986;2023-02-08T02:41:51;9.83;;;6.40;;
10442;SDS011;5269;51.146;16.986;2023-02-08T02:44:41;8.97;;;6.33;;
10442;SDS011;5269;51.146;16.986;2023-02-08T02:47:28;9.23;;;6.33;;
10442;SDS011;5269;51.146;16.986;2023-02-08T02:50:01;7.37;;;5.77;;
10442;SDS011;5269;51.146;16.986;2023-02-08T02:52:37;7.87;;;5.47;;
10442;SDS011;5269;51.146;16.986;2023-02-08T02:55:10;7.90;;;5.23;;
10442;SDS011;5269;51.146;16.986;2023-02-08T02:57:40;6.83;;;5.30;;
10442;SDS011;5269;51.146;16.986;2023-02-08T03:00:10;9.47;;;5.40;;
10442;SDS011;5269;51.146;16.986;2023-02-08T03:02:40;7.73;;;5.37;;
10442;SDS011;5269;51.146;16.986;2023-02-08T03:05:09;6.83;;;5.20;;
10442;SDS011;5269;51.146;16.986;2023-02-08T03:07:58;5.70;;;4.87;;
10442;SDS011;5269;51.146;16.986;2023-02-08T03:10:40;6.57;;;5.13;;
10442;SDS011;5269;51.146;16.986;2023-02-08T03:13:31;6.43;;;5.30;;
10442;SDS011;5269;51.146;16.986;2023-02-08T03:16:15;6.77;;;4.80;;
10442;SDS011;5269;51.146;16.986;2023-02-08T03:18:49;8.17;;;5.60;;
10442;SDS011;5269;51.146;16.986;2023-02-08T03:21:27;7.77;;;6.00;;
10442;SDS011;5269;51.146;16.986;2023-02-08T03:24:06;6.73;;;5.27;;
10442;SDS011;5269;51.146;16.986;2023-02-08T03:26:40;8.37;;;6.23;;
10442;SDS011;5269;51.146;16.986;2023-02-08T03:29:14;9.20;;;5.73;;
10442;SDS011;5269;51.146;16.986;2023-02-08T03:31:49;10.27;;;5.83;;
10442;SDS011;5269;51.146;16.986;2023-02-08T03:34:22;7.07;;;5.40;;
10442;SDS011;5269;51.146;16.986;2023-02-08T03:36:56;7.83;;;5.70;;
10442;SDS011;5269;51.146;16.986;2023-02-08T03:39:28;7.23;;;5.30;;
10442;SDS011;5269;51.146;16.986;2023-02-08T03:41:58;6.70;;;5.33;;
10442;SDS011;5269;51.146;16.986;2023-02-08T03:44:31;7.33;;;5.87;;
10442;SDS011;5269;51.146;16.986;2023-02-08T03:47:01;7.23;;;5.27;;
10442;SDS011;5269;51.146;16.986;2023-02-08T03:49:34;7.77;;;5.13;;
10442;SDS011;5269;51.146;16.986;2023-02-08T03:52:05;7.17;;;5.20;;
10442;SDS011;5269;51.146;16.986;2023-02-08T03:54:38;9.23;;;5.90;;
10442;SDS011;5269;51.146;16.986;2023-02-08T03:57:11;6.57;;;4.93;;
10442;SDS011;5269;51.146;16.986;2023-02-08T03:59:44;7.93;;;4.93;;
10442;SDS011;5269;51.146;16.986;2023-02-08T04:02:15;7.07;;;5.13;;
10442;SDS011;5269;51.146;16.986;2023-02-08T04:04:47;6.63;;;4.73;;
10442;SDS011;5269;51.146;16.986;2023-02-08T04:07:15;5.90;;;4.43;;
10442;SDS011;5269;51.146;16.986;2023-02-08T04:09:42;7.07;;;4.63;;
10442;SDS011;5269;51.146;16.986;2023-02-08T04:12:10;6.73;;;4.73;;
10442;SDS011;5269;51.146;16.986;2023-02-08T04:14:37;6.33;;;4.50;;
10442;SDS011;5269;51.146;16.986;2023-02-08T04:17:04;6.67;;;4.80;;
10442;SDS011;5269;51.146;16.986;2023-02-08T04:19:31;6.10;;;5.00;;
10442;SDS011;5269;51.146;16.986;2023-02-08T04:21:59;7.03;;;4.83;;
10442;SDS011;5269;51.146;16.986;2023-02-08T04:24:26;8.47;;;5.20;;
10442;SDS011;5269;51.146;16.986;2023-02-08T04:26:53;8.07;;;5.10;;
10442;SDS011;5269;51.146;16.986;2023-02-08T04:29:19;7.57;;;5.50;;
10442;SDS011;5269;51.146;16.986;2023-02-08T04:31:46;8.20;;;6.60;;
10442;SDS011;5269;51.146;16.986;2023-02-08T04:34:13;10.33;;;6.17;;
10442;SDS011;5269;51.146;16.986;2023-02-08T04:36:40;7.57;;;5.83;;
10442;SDS011;5269;51.146;16.986;2023-02-08T04:39:09;8.87;;;6.47;;
10442;SDS011;5269;51.146;16.986;2023-02-08T04:41:36;9.30;;;7.00;;
10442;SDS011;5269;51.146;16.986;2023-02-08T04:44:02;9.57;;;6.53;;
10442;SDS011;5269;51.146;16.986;2023-02-08T04:46:29;9.57;;;6.83;;
10442;SDS011;5269;51.146;16.986;2023-02-08T04:48:56;10.47;;;6.67;;
10442;SDS011;5269;51.146;16.986;2023-02-08T04:51:23;9.53;;;6.80;;
10442;SDS011;5269;51.146;16.986;2023-02-08T04:53:50;8.90;;;6.53;;
10442;SDS011;5269;51.146;16.986;2023-02-08T04:56:18;11.40;;;7.33;;
10442;SDS011;5269;51.146;16.986;2023-02-08T04:58:45;11.50;;;7.43;;
10442;SDS011;5269;51.146;16.986;2023-02-08T05:01:12;10.90;;;7.93;;
10442;SDS011;5269;51.146;16.986;2023-02-08T05:03:40;10.20;;;7.43;;
10442;SDS011;5269;51.146;16.986;2023-02-08T05:06:07;10.97;;;7.37;;
10442;SDS011;5269;51.146;16.986;2023-02-08T05:08:34;10.67;;;8.23;;
10442;SDS011;5269;51.146;16.986;2023-02-08T05:11:01;11.20;;;8.03;;
10442;SDS011;5269;51.146;16.986;2023-02-08T05:13:29;10.13;;;7.47;;
10442;SDS011;5269;51.146;16.986;2023-02-08T05:15:56;10.00;;;7.47;;
10442;SDS011;5269;51.146;16.986;2023-02-08T05:18:23;10.97;;;7.97;;
10442;SDS011;5269;51.146;16.986;2023-02-08T05:20:53;10.83;;;7.90;;
10442;SDS011;5269;51.146;16.986;2023-02-08T05:23:21;11.13;;;7.73;;
10442;SDS011;5269;51.146;16.986;2023-02-08T05:25:47;14.23;;;7.87;;
10442;SDS011;5269;51.146;16.986;2023-02-08T05:28:14;11.87;;;8.60;;
10442;SDS011;5269;51.146;16.986;2023-02-08T05:30:43;11.93;;;7.77;;
10442;SDS011;5269;51.146;16.986;2023-02-08T05:33:10;11.53;;;7.67;;
10442;SDS011;5269;51.146;16.986;2023-02-08T05:35:37;10.37;;;7.70;;
10442;SDS011;5269;51.146;16.986;2023-02-08T05:38:04;11.90;;;7.43;;
10442;SDS011;5269;51.146;16.986;2023-02-08T05:40:31;9.53;;;7.43;;
10442;SDS011;5269;51.146;16.986;2023-02-08T05:42:59;11.40;;;7.93;;
10442;SDS011;5269;51.146;16.986;2023-02-08T05:45:26;10.47;;;7.10;;
10442;SDS011;5269;51.146;16.986;2023-02-08T05:47:54;10.30;;;7.50;;
10442;SDS011;5269;51.146;16.986;2023-02-08T05:50:21;11.67;;;7.33;;
10442;SDS011;5269;51.146;16.986;2023-02-08T05:52:48;10.30;;;7.13;;
10442;SDS011;5269;51.146;16.986;2023-02-08T05:55:15;10.50;;;7.33;;
10442;SDS011;5269;51.146;16.986;2023-02-08T05:57:42;12.17;;;7.17;;
10442;SDS011;5269;51.146;16.986;2023-02-08T06:00:09;8.80;;;6.73;;
10442;SDS011;5269;51.146;16.986;2023-02-08T06:02:36;9.37;;;6.73;;
10442;SDS011;5269;51.146;16.986;2023-02-08T06:05:05;9.03;;;6.50;;
10442;SDS011;5269;51.146;16.986;2023-02-08T06:07:32;8.43;;;6.90;;
10442;SDS011;5269;51.146;16.986;2023-02-08T06:09:59;10.87;;;7.07;;
10442;SDS011;5269;51.146;16.986;2023-02-08T06:12:26;11.00;;;7.23;;
10442;SDS011;5269;51.146;16.986;2023-02-08T06:14:53;9.83;;;6.87;;
10442;SDS011;5269;51.146;16.986;2023-02-08T06:17:19;10.97;;;6.83;;
10442;SDS011;5269;51.146;16.986;2023-02-08T06:19:46;8.97;;;6.43;;
10442;SDS011;5269;51.146;16.986;2023-02-08T06:22:14;10.23;;;6.70;;
10442;SDS011;5269;51.146;16.986;2023-02-08T06:24:41;9.33;;;7.00;;
10442;SDS011;5269;51.146;16.986;2023-02-08T06:27:08;10.27;;;7.17;;
10442;SDS011;5269;51.146;16.986;2023-02-08T06:29:35;10.20;;;7.10;;
10442;SDS011;5269;51.146;16.986;2023-02-08T06:32:02;12.57;;;7.80;;
10442;SDS011;5269;51.146;16.986;2023-02-08T06:34:29;10.00;;;7.17;;
10442;SDS011;5269;51.146;16.986;2023-02-08T06:36:56;11.87;;;7.70;;
10442;SDS011;5269;51.146;16.986;2023-02-08T06:39:25;10.43;;;7.23;;
10442;SDS011;5269;51.146;16.986;2023-02-08T06:41:52;11.20;;;7.60;;
10442;SDS011;5269;51.146;16.986;2023-02-08T06:44:19;11.40;;;7.43;;
10442;SDS011;5269;51.146;16.986;2023-02-08T06:46:46;11.67;;;7.43;;
10442;SDS011;5269;51.146;16.986;2023-02-08T06:49:13;10.50;;;6.60;;
10442;SDS011;5269;51.146;16.986;2023-02-08T06:51:40;10.33;;;7.50;;
10442;SDS011;5269;51.146;16.986;2023-02-08T06:54:07;11.80;;;7.60;;
10442;SDS011;5269;51.146;16.986;2023-02-08T06:56:35;13.23;;;7.80;;
10442;SDS011;5269;51.146;16.986;2023-02-08T06:59:02;13.40;;;7.97;;
10442;SDS011;5269;51.146;16.986;2023-02-08T07:01:29;11.87;;;8.13;;
10442;SDS011;5269;51.146;16.986;2023-02-08T07:03:56;12.63;;;8.63;;
10442;SDS011;5269;51.146;16.986;2023-02-08T07:06:22;11.77;;;7.57;;
10442;SDS011;5269;51.146;16.986;2023-02-08T07:08:49;12.93;;;7.60;;
10442;SDS011;5269;51.146;16.986;2023-02-08T07:11:17;15.10;;;8.10;;
10442;SDS011;5269;51.146;16.986;2023-02-08T07:13:47;12.63;;;7.73;;
10442;SDS011;5269;51.146;16.986;2023-02-08T07:16:15;13.13;;;8.20;;
10442;SDS011;5269;51.146;16.986;2023-02-08T07:18:43;12.47;;;8.00;;
10442;SDS011;5269;51.146;16.986;2023-02-08T07:21:10;13.33;;;7.83;;
10442;SDS011;5269;51.146;16.986;2023-02-08T07:23:38;25.40;;;8.20;;
10442;SDS011;5269;51.146;16.986;2023-02-08T07:26:06;18.97;;;8.40;;
10442;SDS011;5269;51.146;16.986;2023-02-08T07:28:34;19.13;;;9.90;;
10442;SDS011;5269;51.146;16.986;2023-02-08T07:31:04;19.80;;;9.47;;
10442;SDS011;5269;51.146;16.986;2023-02-08T07:33:32;14.93;;;10.40;;
10442;SDS011;5269;51.146;16.986;2023-02-08T07:35:59;14.30;;;9.37;;
10442;SDS011;5269;51.146;16.986;2023-02-08T07:38:27;17.93;;;10.17;;
10442;SDS011;5269;51.146;16.986;2023-02-08T07:40:58;17.07;;;10.50;;
10442;SDS011;5269;51.146;16.986;2023-02-08T07:43:26;16.80;;;10.23;;
10442;SDS011;5269;51.146;16.986;2023-02-08T07:45:53;17.30;;;10.40;;
10442;SDS011;5269;51.146;16.986;2023-02-08T07:48:21;19.10;;;11.23;;
10442;SDS011;5269;51.146;16.986;2023-02-08T07:50:48;21.93;;;12.20;;
10442;SDS011;5269;51.146;16.986;2023-02-08T07:53:15;20.00;;;12.00;;
10442;SDS011;5269;51.146;16.986;2023-02-08T07:55:43;21.73;;;12.57;;
10442;SDS011;5269;51.146;16.986;2023-02-08T07:58:11;23.20;;;12.87;;
10442;SDS011;5269;51.146;16.986;2023-02-08T08:00:38;18.63;;;13.00;;
10442;SDS011;5269;51.146;16.986;2023-02-08T08:03:05;21.30;;;12.93;;
10442;SDS011;5269;51.146;16.986;2023-02-08T08:05:33;22.20;;;12.97;;
10442;SDS011;5269;51.146;16.986;2023-02-08T08:08:00;21.33;;;13.40;;
10442;SDS011;5269;51.146;16.986;2023-02-08T08:10:27;20.00;;;12.47;;
10442;SDS011;5269;51.146;16.986;2023-02-08T08:12:54;18.77;;;12.60;;
10442;SDS011;5269;51.146;16.986;2023-02-08T08:15:21;24.90;;;14.07;;
10442;SDS011;5269;51.146;16.986;2023-02-08T08:17:48;20.27;;;12.80;;
10442;SDS011;5269;51.146;16.986;2023-02-08T08:20:15;19.97;;;13.43;;
10442;SDS011;5269;51.146;16.986;2023-02-08T08:22:43;19.07;;;13.50;;
10442;SDS011;5269;51.146;16.986;2023-02-08T08:25:10;20.20;;;12.67;;
10442;SDS011;5269;51.146;16.986;2023-02-08T08:27:38;19.30;;;13.40;;
10442;SDS011;5269;51.146;16.986;2023-02-08T08:30:05;19.23;;;13.20;;
10442;SDS011;5269;51.146;16.986;2023-02-08T08:32:32;18.67;;;13.10;;
10442;SDS011;5269;51.146;16.986;2023-02-08T08:34:59;23.53;;;14.50;;
10442;SDS011;5269;51.146;16.986;2023-02-08T08:37:26;21.13;;;14.43;;
10442;SDS011;5269;51.146;16.986;2023-02-08T08:39:54;18.90;;;12.77;;
10442;SDS011;5269;51.146;16.986;2023-02-08T08:42:21;22.27;;;14.27;;
10442;SDS011;5269;51.146;16.986;2023-02-08T08:44:48;20.87;;;13.90;;
10442;SDS011;5269;51.146;16.986;2023-02-08T08:47:15;18.37;;;13.07;;
10442;SDS011;5269;51.146;16.986;2023-02-08T08:49:42;22.50;;;14.23;;
10442;SDS011;5269;51.146;16.986;2023-02-08T08:52:09;23.93;;;14.10;;
10442;SDS011;5269;51.146;16.986;2023-02-08T08:54:37;23.63;;;13.40;;
10442;SDS011;5269;51.146;16.986;2023-02-08T08:57:05;19.67;;;13.73;;
10442;SDS011;5269;51.146;16.986;2023-02-08T08:59:32;21.47;;;13.70;;
10442;SDS011;5269;51.146;16.986;2023-02-08T09:01:59;22.70;;;13.73;;
10442;SDS011;5269;51.146;16.986;2023-02-08T09:04:26;23.83;;;14.57;;
10442;SDS011;5269;51.146;16.986;2023-02-08T09:06:53;21.27;;;14.03;;
10442;SDS011;5269;51.146;16.986;2023-02-08T09:09:20;21.07;;;13.13;;
10442;SDS011;5269;51.146;16.986;2023-02-08T09:11:48;19.83;;;11.70;;
10442;SDS011;5269;51.146;16.986;2023-02-08T09:14:16;19.53;;;13.90;;
10442;SDS011;5269;51.146;16.986;2023-02-08T09:16:43;23.30;;;13.60;;
10442;SDS011;5269;51.146;16.986;2023-02-08T09:19:12;21.93;;;13.40;;
10442;SDS011;5269;51.146;16.986;2023-02-08T09:21:39;22.13;;;13.07;;
10442;SDS011;5269;51.146;16.986;2023-02-08T09:24:07;18.70;;;12.73;;
10442;SDS011;5269;51.146;16.986;2023-02-08T09:26:34;22.90;;;13.77;;
10442;SDS011;5269;51.146;16.986;2023-02-08T09:29:01;20.23;;;13.13;;
10442;SDS011;5269;51.146;16.986;2023-02-08T09:31:30;21.10;;;13.83;;
10442;SDS011;5269;51.146;16.986;2023-02-08T09:33:59;21.63;;;14.03;;
10442;SDS011;5269;51.146;16.986;2023-02-08T09:36:27;23.10;;;13.13;;
10442;SDS011;5269;51.146;16.986;2023-02-08T09:38:58;20.53;;;12.87;;
10442;SDS011;5269;51.146;16.986;2023-02-08T09:41:31;23.00;;;13.67;;
10442;SDS011;5269;51.146;16.986;2023-02-08T09:44:19;20.93;;;12.57;;
10442;SDS011;5269;51.146;16.986;2023-02-08T09:46:56;21.13;;;13.10;;
10442;SDS011;5269;51.146;16.986;2023-02-08T09:49:27;24.20;;;12.60;;
10442;SDS011;5269;51.146;16.986;2023-02-08T09:52:00;20.60;;;11.93;;
10442;SDS011;5269;51.146;16.986;2023-02-08T09:54:31;21.20;;;13.10;;
10442;SDS011;5269;51.146;16.986;2023-02-08T09:57:03;22.93;;;12.93;;
10442;SDS011;5269;51.146;16.986;2023-02-08T09:59:33;19.53;;;12.97;;
10442;SDS011;5269;51.146;16.986;2023-02-08T10:02:22;19.57;;;12.40;;
10442;SDS011;5269;51.146;16.986;2023-02-08T10:04:56;19.77;;;12.37;;
10442;SDS011;5269;51.146;16.986;2023-02-08T10:07:26;21.50;;;12.63;;
10442;SDS011;5269;51.146;16.986;2023-02-08T10:09:55;21.40;;;13.20;;
10442;SDS011;5269;51.146;16.986;2023-02-08T10:12:27;22.17;;;13.17;;
10442;SDS011;5269;51.146;16.986;2023-02-08T10:15:08;24.10;;;13.63;;
10442;SDS011;5269;51.146;16.986;2023-02-08T10:17:53;20.00;;;12.90;;
10442;SDS011;5269;51.146;16.986;2023-02-08T10:20:32;18.07;;;11.17;;
10442;SDS011;5269;51.146;16.986;2023-02-08T10:23:15;20.00;;;12.23;;
10442;SDS011;5269;51.146;16.986;2023-02-08T10:26:05;18.20;;;11.97;;
10442;SDS011;5269;51.146;16.986;2023-02-08T10:28:44;22.40;;;13.07;;
10442;SDS011;5269;51.146;16.986;2023-02-08T10:31:25;18.63;;;12.27;;
10442;SDS011;5269;51.146;16.986;2023-02-08T10:34:07;23.67;;;12.57;;
10442;SDS011;5269;51.146;16.986;2023-02-08T10:36:43;21.00;;;13.90;;
10442;SDS011;5269;51.146;16.986;2023-02-08T10:39:13;25.33;;;14.93;;
10442;SDS011;5269;51.146;16.986;2023-02-08T10:41:41;25.50;;;14.00;;
10442;SDS011;5269;51.146;16.986;2023-02-08T10:44:12;21.70;;;13.70;;
10442;SDS011;5269;51.146;16.986;2023-02-08T10:46:53;22.80;;;13.60;;
10442;SDS011;5269;51.146;16.986;2023-02-08T10:49:31;22.77;;;13.40;;
10442;SDS011;5269;51.146;16.986;2023-02-08T10:52:04;22.00;;;13.20;;
10442;SDS011;5269;51.146;16.986;2023-02-08T10:54:32;25.07;;;14.33;;
10442;SDS011;5269;51.146;16.986;2023-02-08T10:57:00;23.80;;;14.20;;
10442;SDS011;5269;51.146;16.986;2023-02-08T10:59:30;20.43;;;13.60;;
10442;SDS011;5269;51.146;16.986;2023-02-08T11:01:58;23.50;;;14.57;;
10442;SDS011;5269;51.146;16.986;2023-02-08T11:04:25;25.50;;;14.77;;
10442;SDS011;5269;51.146;16.986;2023-02-08T11:06:54;25.70;;;14.73;;
10442;SDS011;5269;51.146;16.986;2023-02-08T11:09:22;23.13;;;14.20;;
10442;SDS011;5269;51.146;16.986;2023-02-08T11:11:51;22.23;;;14.50;;
10442;SDS011;5269;51.146;16.986;2023-02-08T11:14:21;23.47;;;15.50;;
10442;SDS011;5269;51.146;16.986;2023-02-08T11:16:51;25.30;;;15.27;;
10442;SDS011;5269;51.146;16.986;2023-02-08T11:19:20;24.47;;;15.23;;
10442;SDS011;5269;51.146;16.986;2023-02-08T11:21:59;24.97;;;16.07;;
10442;SDS011;5269;51.146;16.986;2023-02-08T11:24:31;21.57;;;15.07;;
10442;SDS011;5269;51.146;16.986;2023-02-08T11:27:09;24.37;;;15.60;;
10442;SDS011;5269;51.146;16.986;2023-02-08T11:29:41;27.63;;;16.37;;
10442;SDS011;5269;51.146;16.986;2023-02-08T11:32:13;23.60;;;15.40;;
10442;SDS011;5269;51.146;16.986;2023-02-08T11:34:41;25.77;;;16.47;;
10442;SDS011;5269;51.146;16.986;2023-02-08T11:37:14;23.67;;;15.63;;
10442;SDS011;5269;51.146;16.986;2023-02-08T11:39:43;28.53;;;17.73;;
10442;SDS011;5269;51.146;16.986;2023-02-08T11:42:16;27.17;;;17.27;;
10442;SDS011;5269;51.146;16.986;2023-02-08T11:44:45;31.80;;;19.90;;
10442;SDS011;5269;51.146;16.986;2023-02-08T11:47:14;31.57;;;21.10;;
10442;SDS011;5269;51.146;16.986;2023-02-08T11:49:42;33.90;;;20.77;;
10442;SDS011;5269;51.146;16.986;2023-02-08T11:52:19;36.10;;;22.83;;
10442;SDS011;5269;51.146;16.986;2023-02-08T11:54:49;39.30;;;21.93;;
10442;SDS011;5269;51.146;16.986;2023-02-08T11:57:17;35.63;;;21.53;;
10442;SDS011;5269;51.146;16.986;2023-02-08T11:59:45;33.08;;;21.10;;
10442;SDS011;5269;51.146;16.986;2023-02-08T12:05:03;32.20;;;19.17;;
10442;SDS011;5269;51.146;16.986;2023-02-08T12:07:41;28.03;;;16.87;;
10442;SDS011;5269;51.146;16.986;2023-02-08T12:16:42;25.43;;;17.40;;
10442;SDS011;5269;51.146;16.986;2023-02-08T12:19:25;23.43;;;16.53;;
10442;SDS011;5269;51.146;16.986;2023-02-08T12:22:16;28.73;;;17.97;;
10442;SDS011;5269;51.146;16.986;2023-02-08T12:24:51;26.53;;;17.30;;
10442;SDS011;5269;51.146;16.986;2023-02-08T12:27:29;25.57;;;16.30;;
10442;SDS011;5269;51.146;16.986;2023-02-08T12:30:08;23.00;;;15.40;;
10442;SDS011;5269;51.146;16.986;2023-02-08T12:32:56;27.80;;;17.77;;
10442;SDS011;5269;51.146;16.986;2023-02-08T12:35:49;26.03;;;17.33;;
10442;SDS011;5269;51.146;16.986;2023-02-08T12:38:32;27.00;;;16.27;;
10442;SDS011;5269;51.146;16.986;2023-02-08T12:41:33;26.03;;;16.60;;
10442;SDS011;5269;51.146;16.986;2023-02-08T12:44:10;24.37;;;16.03;;
10442;SDS011;5269;51.146;16.986;2023-02-08T12:46:53;23.10;;;15.77;;
10442;SDS011;5269;51.146;16.986;2023-02-08T12:49:34;23.30;;;15.63;;
10442;SDS011;5269;51.146;16.986;2023-02-08T12:52:21;25.47;;;17.20;;
10442;SDS011;5269;51.146;16.986;2023-02-08T12:54:54;25.70;;;17.00;;
10442;SDS011;5269;51.146;16.986;2023-02-08T12:57:27;26.63;;;17.53;;
10442;SDS011;5269;51.146;16.986;2023-02-08T12:59:56;26.27;;;16.33;;
10442;SDS011;5269;51.146;16.986;2023-02-08T13:02:28;24.50;;;15.43;;
10442;SDS011;5269;51.146;16.986;2023-02-08T13:05:00;30.47;;;17.43;;
10442;SDS011;5269;51.146;16.986;2023-02-08T13:07:30;27.50;;;18.47;;
10442;SDS011;5269;51.146;16.986;2023-02-08T13:10:01;25.53;;;16.60;;
10442;SDS011;5269;51.146;16.986;2023-02-08T13:12:33;25.93;;;16.77;;
10442;SDS011;5269;51.146;16.986;2023-02-08T13:15:06;28.57;;;16.97;;
10442;SDS011;5269;51.146;16.986;2023-02-08T13:17:40;27.13;;;16.60;;
10442;SDS011;5269;51.146;16.986;2023-02-08T13:20:17;24.80;;;16.37;;
10442;SDS011;5269;51.146;16.986;2023-02-08T13:22:52;23.20;;;16.10;;
10442;SDS011;5269;51.146;16.986;2023-02-08T13:25:25;24.80;;;15.00;;
10442;SDS011;5269;51.146;16.986;2023-02-08T13:27:59;25.43;;;16.07;;
10442;SDS011;5269;51.146;16.986;2023-02-08T13:30:27;23.03;;;15.93;;
10442;SDS011;5269;51.146;16.986;2023-02-08T13:32:56;23.43;;;15.80;;
10442;SDS011;5269;51.146;16.986;2023-02-08T13:35:27;24.43;;;16.60;;
10442;SDS011;5269;51.146;16.986;2023-02-08T13:37:57;25.33;;;15.87;;
10442;SDS011;5269;51.146;16.986;2023-02-08T13:40:28;25.67;;;15.70;;
10442;SDS011;5269;51.146;16.986;2023-02-08T13:42:57;22.43;;;15.53;;
10442;SDS011;5269;51.146;16.986;2023-02-08T13:45:28;24.13;;;16.53;;
10442;SDS011;5269;51.146;16.986;2023-02-08T13:47:59;24.57;;;16.37;;
10442;SDS011;5269;51.146;16.986;2023-02-08T13:50:38;26.83;;;16.07;;
10442;SDS011;5269;51.146;16.986;2023-02-08T13:53:11;23.67;;;15.00;;
10442;SDS011;5269;51.146;16.986;2023-02-08T13:58:27;28.90;;;16.67;;
10442;SDS011;5269;51.146;16.986;2023-02-08T14:01:11;26.50;;;16.27;;
10442;SDS011;5269;51.146;16.986;2023-02-08T14:03:42;23.77;;;16.57;;
10442;SDS011;5269;51.146;16.986;2023-02-08T14:06:15;28.20;;;17.40;;
10442;SDS011;5269;51.146;16.986;2023-02-08T14:08:49;25.50;;;15.30;;
10442;SDS011;5269;51.146;16.986;2023-02-08T14:11:22;25.00;;;15.73;;
10442;SDS011;5269;51.146;16.986;2023-02-08T14:14:01;25.60;;;15.90;;
10442;SDS011;5269;51.146;16.986;2023-02-08T14:16:31;25.67;;;15.30;;
10442;SDS011;5269;51.146;16.986;2023-02-08T14:19:00;22.10;;;14.73;;
10442;SDS011;5269;51.146;16.986;2023-02-08T14:21:30;23.90;;;15.50;;
10442;SDS011;5269;51.146;16.986;2023-02-08T14:24:00;23.97;;;15.53;;
10442;SDS011;5269;51.146;16.986;2023-02-08T14:26:29;23.97;;;15.33;;
10442;SDS011;5269;51.146;16.986;2023-02-08T14:28:57;27.90;;;15.67;;
10442;SDS011;5269;51.146;16.986;2023-02-08T14:31:40;25.03;;;16.13;;
10442;SDS011;5269;51.146;16.986;2023-02-08T14:34:20;27.60;;;15.90;;
10442;SDS011;5269;51.146;16.986;2023-02-08T14:36:57;25.97;;;16.97;;
10442;SDS011;5269;51.146;16.986;2023-02-08T14:39:31;31.00;;;18.27;;
10442;SDS011;5269;51.146;16.986;2023-02-08T14:41:59;30.00;;;18.20;;
10442;SDS011;5269;51.146;16.986;2023-02-08T14:50:30;36.20;;;22.63;;
10442;SDS011;5269;51.146;16.986;2023-02-08T14:53:02;31.87;;;20.67;;
10442;SDS011;5269;51.146;16.986;2023-02-08T14:55:33;35.93;;;22.40;;
10442;SDS011;5269;51.146;16.986;2023-02-08T14:58:06;32.70;;;20.87;;
10442;SDS011;5269;51.146;16.986;2023-02-08T15:00:39;34.03;;;21.33;;
10442;SDS011;5269;51.146;16.986;2023-02-08T15:03:11;34.70;;;22.20;;
10442;SDS011;5269;51.146;16.986;2023-02-08T15:05:43;31.73;;;20.83;;
10442;SDS011;5269;51.146;16.986;2023-02-08T15:08:23;35.37;;;21.43;;
10442;SDS011;5269;51.146;16.986;2023-02-08T15:10:50;35.75;;;21.05;;
10442;SDS011;5269;51.146;16.986;2023-02-08T15:13:18;41.40;;;22.60;;